Time;durP1;ratioP1;P1;durP2;ratioP2;P2;SDS_P1;SDS_P2;PMS_P1;PMS_P2;Temp;Humidity;BMP_temperature;BMP_pressure;BME280_temperature;BME280_humidity;BME280_pressure;Samples;Min_cycle;Max_cycle;Signal;HPM_P1;HPM_P2
2022/03/30 00:01:11;;;;;;;38.50;17.15;;;;;;;9.99;51.16;94782.19;6284855;22;20499;-83
2022/03/30 00:03:37;;;;;;;34.70;16.52;;;;;;;9.33;52.27;94707.78;6287216;22;20050;-83
2022/03/30 00:06:05;;;;;;;35.65;16.38;;;;;;;9.62;51.70;94743.81;6288185;22;20092;-82
2022/03/30 00:08:31;;;;;;;41.65;17.15;;;;;;;9.51;51.36;94717.72;6287184;22;20007;-82
2022/03/30 00:10:57;;;;;;;44.90;16.40;;;;;;;8.82;52.18;94631.47;6285840;22;20022;-82
2022/03/30 00:13:23;;;;;;;33.33;15.70;;;;;;;9.16;52.23;94708.16;6285887;22;20008;-82
2022/03/30 00:15:48;;;;;;;47.17;17.08;;;;;;;9.31;52.30;94709.94;6285264;22;20519;-82
2022/03/30 00:18:14;;;;;;;41.05;16.80;;;;;;;9.38;53.26;94773.94;6288804;22;20011;-83
2022/03/30 00:20:39;;;;;;;43.47;17.83;;;;;;;8.86;52.56;94659.72;6287131;22;20424;-83
2022/03/30 00:23:05;;;;;;;38.45;16.90;;;;;;;9.08;53.68;94749.22;6287167;22;20018;-84
2022/03/30 00:25:31;;;;;;;33.70;16.55;;;;;;;8.61;53.35;94686.31;6284408;22;20034;-83
2022/03/30 00:27:56;;;;;;;40.33;16.38;;;;;;;9.18;53.29;94735.16;6285447;22;20528;-83
2022/03/30 00:30:22;;;;;;;35.33;17.27;;;;;;;9.18;53.81;94777.47;6287409;22;20014;-82
2022/03/30 00:32:48;;;;;;;36.20;16.33;;;;;;;7.97;53.78;94584.09;6285762;22;20007;-82
2022/03/30 00:35:14;;;;;;;45.67;18.10;;;;;;;9.24;53.63;94771.09;6287355;22;20358;-83
2022/03/30 00:37:40;;;;;;;48.17;17.83;;;;;;;8.66;54.23;94686.28;6286914;22;20007;-82
2022/03/30 00:40:09;;;;;;;40.03;16.65;;;;;;;9.29;53.48;94768.44;6285262;22;20029;-82
2022/03/30 00:42:35;;;;;;;41.38;15.75;;;;;;;8.05;54.47;94664.59;6285365;22;20030;-83
2022/03/30 00:45:08;;;;;;;38.92;16.92;;;;;;;8.93;54.72;94770.47;6287024;22;20114;-82
2022/03/30 00:47:34;;;;;;;50.63;16.13;;;;;;;8.59;54.17;94703.50;6286979;22;20018;-82
2022/03/30 00:49:59;;;;;;;31.40;15.73;;;;;;;8.35;54.35;94651.28;6286897;22;20449;-82
2022/03/30 00:52:25;;;;;;;41.92;17.60;;;;;;;9.09;53.91;94748.16;6286739;22;20007;-82
2022/03/30 00:54:51;;;;;;;39.60;15.80;;;;;;;8.28;54.50;94677.19;6287554;22;20021;-83
2022/03/30 00:57:21;;;;;;;35.85;17.45;;;;;;;8.51;54.74;94704.84;6287809;22;20061;-82
2022/03/30 00:59:48;;;;;;;40.35;16.50;;;;;;;8.98;54.24;94744.00;6286125;22;20011;-82
2022/03/30 01:02:14;;;;;;;35.15;17.27;;;;;;;8.51;54.45;94710.94;6288225;22;20080;-83
2022/03/30 01:04:40;;;;;;;39.35;18.13;;;;;;;8.80;54.62;94761.28;6285101;22;20022;-82
2022/03/30 01:07:05;;;;;;;35.33;15.48;;;;;;;8.01;55.07;94634.50;6286822;22;20011;-83
2022/03/30 01:09:31;;;;;;;43.38;16.48;;;;;;;7.10;55.49;94511.53;6287808;22;20006;-82
2022/03/30 01:11:57;;;;;;;43.50;17.35;;;;;;;7.44;55.13;94547.88;6285037;22;20110;-82
2022/03/30 01:14:24;;;;;;;39.88;16.30;;;;;;;8.26;54.58;94649.44;6284538;22;20019;-82
2022/03/30 01:16:50;;;;;;;37.72;16.80;;;;;;;8.63;55.22;94715.88;6284511;22;20035;-82
2022/03/30 01:19:16;;;;;;;36.88;16.42;;;;;;;8.08;54.82;94627.09;6286005;22;20003;-83
2022/03/30 01:21:43;;;;;;;37.80;16.23;;;;;;;9.14;54.52;94744.72;6284124;22;20103;-83
2022/03/30 01:24:11;;;;;;;42.78;16.92;;;;;;;8.13;55.45;94672.75;6284157;22;20094;-84
2022/03/30 01:26:37;;;;;;;52.78;17.42;;;;;;;8.51;54.82;94673.16;6283501;22;20042;-83
2022/03/30 01:32:25;;;;;;;30.92;16.33;;;;;;;8.84;55.26;94746.47;6287196;22;20010;-83
2022/03/30 01:34:35;;;;;;;31.23;14.68;;;;;;;8.28;55.17;94627.00;6286903;22;20541;-83
2022/03/30 01:37:03;;;;;;;38.00;16.42;;;;;;;6.77;55.03;94412.00;6284042;22;20343;-83
2022/03/30 01:39:29;;;;;;;34.40;16.67;;;;;;;8.27;54.51;94616.69;6284736;22;20076;-83
2022/03/30 01:41:54;;;;;;;42.90;16.88;;;;;;;8.73;54.68;94717.69;6289195;22;20450;-83
2022/03/30 01:44:19;;;;;;;33.00;16.42;;;;;;;8.70;54.39;94695.22;6288816;22;20011;-83
2022/03/30 01:46:45;;;;;;;47.97;16.23;;;;;;;8.17;54.13;94604.31;6287570;22;20084;-84
2022/03/30 01:49:10;;;;;;;72.07;18.15;;;;;;;8.07;54.19;94599.09;6287670;22;20653;-83
2022/03/30 01:51:36;;;;;;;55.92;17.50;;;;;;;7.71;54.37;94559.63;6289138;22;20090;-83
2022/03/30 01:54:01;;;;;;;47.63;17.23;;;;;;;8.79;54.61;94735.91;6286794;22;20073;-84
2022/03/30 01:56:27;;;;;;;37.00;16.17;;;;;;;8.46;55.01;94691.69;6288140;22;20014;-84
2022/03/30 01:58:52;;;;;;;40.25;18.27;;;;;;;8.36;55.18;94697.78;6286682;22;20051;-82
2022/03/30 02:01:18;;;;;;;49.78;18.05;;;;;;;8.06;54.74;94624.72;6288845;22;20018;-83
2022/03/30 02:03:43;;;;;;;34.42;17.30;;;;;;;6.31;55.06;94361.25;6286375;22;20058;-83
2022/03/30 02:06:12;;;;;;;44.17;16.50;;;;;;;8.57;54.70;94710.91;6289144;22;20090;-84
2022/03/30 02:08:38;;;;;;;42.40;16.50;;;;;;;7.81;55.55;94624.81;6288674;22;20549;-83
2022/03/30 02:11:04;;;;;;;39.47;17.05;;;;;;;7.34;55.14;94570.56;6288245;22;20022;-83
2022/03/30 02:13:29;;;;;;;33.78;15.23;;;;;;;7.71;55.06;94601.84;6287941;22;20006;-83
2022/03/30 02:15:55;;;;;;;51.90;17.08;;;;;;;8.64;56.09;94775.63;6286649;22;20011;-83
2022/03/30 02:18:20;;;;;;;47.97;17.67;;;;;;;7.78;56.11;94659.66;6289658;22;20018;-83
2022/03/30 02:20:46;;;;;;;48.88;17.85;;;;;;;8.26;55.84;94728.69;6297539;22;20018;-82
2022/03/30 02:23:11;;;;;;;46.72;17.10;;;;;;;8.36;55.79;94724.22;6289061;22;20038;-82
2022/03/30 02:25:37;;;;;;;41.08;17.45;;;;;;;7.83;56.21;94695.81;6288914;22;20624;-83
2022/03/30 02:28:03;;;;;;;35.05;15.68;;;;;;;7.57;55.67;94621.97;6287144;22;20015;-83
2022/03/30 02:30:30;;;;;;;40.53;18.83;;;;;;;6.92;55.63;94536.66;6288600;22;20112;-83
2022/03/30 02:32:57;;;;;;;46.13;17.10;;;;;;;8.62;55.68;94788.31;6286555;22;20046;-83
2022/03/30 02:35:23;;;;;;;45.10;17.90;;;;;;;7.67;55.60;94643.06;6286177;22;20014;-83
2022/03/30 02:37:49;;;;;;;39.17;16.67;;;;;;;8.10;55.75;94722.66;6287055;22;20011;-82
2022/03/30 02:40:15;;;;;;;33.70;16.55;;;;;;;7.74;56.03;94666.53;6289060;22;20086;-83
2022/03/30 02:42:40;;;;;;;42.85;17.13;;;;;;;6.66;56.67;94531.63;6285906;22;20470;-82
2022/03/30 02:45:07;;;;;;;34.90;16.92;;;;;;;7.51;56.39;94651.25;6288125;22;20033;-83
2022/03/30 02:50:16;;;;;;;30.65;16.02;;;;;;;8.00;57.19;94784.25;6287847;22;20418;-84
2022/03/30 02:52:42;;;;;;;36.05;17.58;;;;;;;7.28;56.53;94626.25;6288689;22;20399;-82
2022/03/30 02:55:08;;;;;;;39.15;16.83;;;;;;;7.95;56.98;94736.69;6287423;22;20533;-82
2022/03/30 02:57:34;;;;;;;39.97;16.95;;;;;;;7.97;57.83;94786.59;6288620;22;20031;-83
2022/03/30 02:59:59;;;;;;;49.17;17.83;;;;;;;6.77;58.54;94630.75;6288842;22;20561;-83
2022/03/30 03:02:25;;;;;;;41.42;17.77;;;;;;;7.45;57.89;94702.47;6287981;22;20493;-83
2022/03/30 03:04:51;;;;;;;40.45;16.23;;;;;;;7.25;57.76;94675.03;6286780;22;20011;-83
2022/03/30 03:07:17;;;;;;;48.78;17.25;;;;;;;6.91;58.77;94669.50;6287108;22;20375;-82
2022/03/30 03:09:45;;;;;;;40.22;16.60;;;;;;;7.87;58.29;94774.19;6286904;22;20509;-83
2022/03/30 03:12:11;;;;;;;39.58;16.50;;;;;;;7.83;58.43;94775.81;6286466;22;20343;-82
2022/03/30 03:14:36;;;;;;;41.10;16.65;;;;;;;6.79;58.18;94615.47;6287441;22;20015;-86
2022/03/30 03:17:02;;;;;;;43.97;16.55;;;;;;;6.96;57.70;94637.06;6288938;22;20009;-85
2022/03/30 03:19:28;;;;;;;42.13;17.70;;;;;;;7.30;58.16;94672.41;6288646;22;20015;-82
2022/03/30 03:21:54;;;;;;;53.30;17.42;;;;;;;7.42;57.60;94690.59;6290000;22;20019;-83
2022/03/30 03:24:19;;;;;;;44.45;16.48;;;;;;;6.63;58.86;94633.09;6289313;22;20011;-85
2022/03/30 03:26:45;;;;;;;30.20;15.95;;;;;;;7.07;58.47;94666.88;6285245;22;20015;-84
2022/03/30 03:29:10;;;;;;;35.63;16.13;;;;;;;7.87;57.96;94757.56;6286054;22;20003;-84
2022/03/30 03:31:35;;;;;;;42.97;16.00;;;;;;;7.90;57.83;94770.25;6286147;22;20023;-85
2022/03/30 03:34:01;;;;;;;40.55;17.60;;;;;;;6.76;58.13;94576.44;6284819;22;20049;-83
2022/03/30 03:36:27;;;;;;;44.50;17.23;;;;;;;6.51;57.86;94527.16;6286380;22;20086;-84
2022/03/30 03:38:52;;;;;;;49.33;18.35;;;;;;;7.96;58.39;94769.97;6285802;22;20457;-84
2022/03/30 03:41:19;;;;;;;38.72;17.10;;;;;;;7.02;57.95;94612.28;6286315;22;20014;-82
2022/03/30 03:43:45;;;;;;;37.22;16.98;;;;;;;6.70;58.57;94595.94;6290823;22;20011;-83
2022/03/30 03:46:10;;;;;;;42.50;18.98;;;;;;;6.28;59.54;94585.59;6287933;22;20476;-84
2022/03/30 03:48:36;;;;;;;51.67;17.63;;;;;;;6.79;58.96;94653.13;6287799;22;20011;-83
2022/03/30 03:51:01;;;;;;;42.28;18.52;;;;;;;6.88;59.32;94656.81;6288514;22;20449;-83
2022/03/30 03:53:27;;;;;;;50.08;17.95;;;;;;;6.61;59.36;94600.94;6291488;22;20014;-83
2022/03/30 03:55:52;;;;;;;42.13;16.98;;;;;;;5.78;59.43;94497.56;6288384;22;20090;-84
2022/03/30 03:58:18;;;;;;;40.20;17.13;;;;;;;7.07;59.49;94716.97;6290219;22;20388;-83
2022/03/30 04:00:43;;;;;;;39.67;16.77;;;;;;;6.30;59.58;94607.22;6288315;22;20347;-83
2022/03/30 04:03:08;;;;;;;39.38;17.00;;;;;;;6.07;59.24;94530.28;6287763;22;20007;-84
2022/03/30 04:05:34;;;;;;;48.22;17.67;;;;;;;7.18;60.08;94729.09;6286080;22;20019;-83
2022/03/30 04:07:59;;;;;;;45.75;16.98;;;;;;;7.32;59.28;94732.81;6288135;22;20373;-82
2022/03/30 04:10:25;;;;;;;47.05;17.35;;;;;;;6.63;59.73;94617.28;6288236;22;20136;-82
2022/03/30 04:12:51;;;;;;;42.70;16.40;;;;;;;7.58;59.58;94758.13;6289754;22;20084;-84
2022/03/30 04:15:17;;;;;;;39.92;18.20;;;;;;;6.45;59.04;94573.00;6291056;22;20430;-82
2022/03/30 04:17:44;;;;;;;43.55;17.02;;;;;;;7.26;58.57;94679.25;6290615;22;20035;-83
2022/03/30 04:20:11;;;;;;;40.03;18.20;;;;;;;6.99;59.17;94657.63;6288450;22;20374;-82
2022/03/30 04:22:36;;;;;;;47.63;17.77;;;;;;;7.02;59.24;94656.31;6290611;22;20015;-82
2022/03/30 04:25:04;;;;;;;44.58;17.83;;;;;;;7.80;58.86;94775.53;6285963;22;20462;-83
2022/03/30 04:27:30;;;;;;;60.75;19.90;;;;;;;7.21;58.86;94673.19;6286860;22;20011;-82
2022/03/30 04:29:55;;;;;;;80.38;21.80;;;;;;;7.03;58.62;94621.75;6286711;22;20079;-83
2022/03/30 04:32:21;;;;;;;78.38;20.40;;;;;;;7.87;58.75;94757.56;6282862;22;20087;-84
2022/03/30 04:34:46;;;;;;;54.72;20.38;;;;;;;6.61;58.52;94566.69;6280468;22;20375;-84
2022/03/30 04:37:15;;;;;;;66.57;20.67;;;;;;;6.91;58.42;94576.44;6284025;22;20007;-84
2022/03/30 04:39:41;;;;;;;68.05;20.13;;;;;;;7.24;58.44;94638.38;6289544;22;20011;-83
2022/03/30 04:42:07;;;;;;;64.55;21.48;;;;;;;6.29;58.04;94500.28;6276971;22;20062;-85
2022/03/30 04:44:35;;;;;;;69.32;20.63;;;;;;;7.63;58.33;94672.88;6276057;22;20034;-84
2022/03/30 04:47:01;;;;;;;55.83;19.13;;;;;;;1.89;58.34;93860.81;6267146;22;20057;-85
2022/03/30 04:49:27;;;;;;;75.30;18.85;;;;;;;3.04;58.46;93982.09;6272325;22;20345;-82
2022/03/30 04:51:52;;;;;;;67.53;19.90;;;;;;;6.25;57.91;94452.66;6274141;22;20488;-86
2022/03/30 04:54:20;;;;;;;61.58;21.88;;;;;;;3.74;57.27;94058.59;6276370;22;20031;-85
2022/03/30 04:56:47;;;;;;;62.50;19.58;;;;;;;3.54;57.36;94048.06;6280171;22;20064;-85
2022/03/30 04:59:15;;;;;;;64.60;21.95;;;;;;;3.83;57.41;94078.03;6278076;22;20008;-85
2022/03/30 05:01:43;;;;;;;81.30;23.15;;;;;;;3.65;57.42;94019.00;6277945;22;20080;-84
2022/03/30 05:04:09;;;;;;;63.20;20.98;;;;;;;3.62;57.14;94003.78;6274254;22;20200;-85
2022/03/30 05:06:40;;;;;;;69.20;23.25;;;;;;;3.91;56.66;94089.84;6274006;22;20135;-86
2022/03/30 05:09:12;;;;;;;58.90;21.95;;;;;;;2.79;56.32;93892.94;6271826;22;20054;-86
2022/03/30 05:11:39;;;;;;;70.90;22.70;;;;;;;6.64;56.20;94496.88;6275678;22;20441;-85
2022/03/30 05:14:07;;;;;;;67.25;22.42;;;;;;;3.93;56.07;94080.69;6276603;22;20022;-85
2022/03/30 05:16:40;;;;;;;60.90;21.10;;;;;;;5.60;56.27;94341.00;6278038;22;20469;-84
2022/03/30 05:19:09;;;;;;;57.83;21.50;;;;;;;7.04;56.14;94491.53;6269030;22;20053;-85
2022/03/30 05:21:35;;;;;;;72.35;22.40;;;;;;;4.02;55.49;94016.19;6276027;22;20195;-84
2022/03/30 05:24:09;;;;;;;63.05;24.17;;;;;;;6.40;55.89;94386.81;6276092;22;20017;-85
2022/03/30 05:26:35;;;;;;;60.67;22.02;;;;;;;5.57;55.09;94235.56;6274683;22;20025;-85
2022/03/30 05:29:01;;;;;;;50.78;21.60;;;;;;;5.66;55.17;94303.13;6275881;22;20535;-85
2022/03/30 05:31:26;;;;;;;58.58;22.40;;;;;;;4.08;55.87;94038.75;6245405;22;20121;-83
2022/03/30 05:33:52;;;;;;;57.65;22.30;;;;;;;4.30;55.62;94035.88;6271666;22;20453;-84
2022/03/30 05:36:18;;;;;;;58.10;22.48;;;;;;;7.20;55.69;94529.19;6272851;22;20041;-84
2022/03/30 05:38:48;;;;;;;70.55;23.85;;;;;;;4.57;54.82;94028.53;6271841;22;20472;-84
2022/03/30 05:41:15;;;;;;;60.10;21.63;;;;;;;8.14;55.23;94642.66;6274382;22;20088;-83
2022/03/30 05:43:41;;;;;;;62.28;20.70;;;;;;;7.34;55.39;94491.44;6270300;22;20573;-83
2022/03/30 05:46:06;;;;;;;69.80;23.15;;;;;;;7.80;55.01;94522.91;6267221;22;20047;-83
2022/03/30 05:48:32;;;;;;;62.33;20.40;;;;;;;7.73;54.35;94539.03;6272796;22;20019;-85
2022/03/30 05:50:58;;;;;;;54.60;19.65;;;;;;;6.64;54.84;94330.91;6272177;22;20354;-84
2022/03/30 05:53:29;;;;;;;55.28;20.40;;;;;;;4.95;54.26;94073.69;6272019;22;20014;-85
2022/03/30 05:55:57;;;;;;;45.30;20.48;;;;;;;9.69;54.25;94836.94;6275374;22;20017;-83
2022/03/30 05:58:25;;;;;;;45.42;19.50;;;;;;;4.37;53.79;93930.63;6276270;22;20007;-84
2022/03/30 06:00:51;;;;;;;50.95;21.50;;;;;;;7.48;53.96;94470.53;6272399;22;20030;-81
2022/03/30 06:03:17;;;;;;;49.00;20.00;;;;;;;6.02;54.17;94179.44;6269451;22;20249;-85
2022/03/30 06:05:43;;;;;;;36.33;18.92;;;;;;;7.20;53.69;94379.66;6250075;22;20260;-84
2022/03/30 06:08:09;;;;;;;48.53;20.38;;;;;;;4.80;54.00;94031.69;6275036;22;20046;-84
2022/03/30 06:10:35;;;;;;;51.40;21.42;;;;;;;7.82;53.66;94460.06;6268233;22;20007;-83
2022/03/30 06:13:03;;;;;;;56.95;24.42;;;;;;;8.35;53.13;94535.03;6269526;22;20017;-83
2022/03/30 06:15:30;;;;;;;65.85;26.73;;;;;;;7.72;52.38;94439.00;6270701;22;20507;-87
2022/03/30 06:18:02;;;;;;;63.47;25.73;;;;;;;9.41;52.79;94723.88;6272387;22;20080;-83
2022/03/30 06:20:27;;;;;;;;;;;;;;;9.99;52.90;94793.53;6271888;22;20740;-85
2022/03/30 06:22:54;;;;;;;65.85;25.80;;;;;;;9.45;52.87;94679.13;6272614;22;19915;-84
2022/03/30 06:25:25;;;;;;;62.55;25.35;;;;;;;7.56;52.61;94367.06;6270448;22;20031;-84
2022/03/30 06:27:54;;;;;;;73.68;28.95;;;;;;;7.99;53.03;94486.13;6275148;22;20269;-85
2022/03/30 06:30:20;;;;;;;76.88;29.60;;;;;;;4.59;52.79;93910.88;6273631;22;20254;-86
2022/03/30 06:32:49;;;;;;;80.60;32.30;;;;;;;7.43;52.88;94354.50;6274410;22;20011;-84
2022/03/30 06:35:17;;;;;;;81.35;29.17;;;;;;;7.93;52.55;94466.09;6271251;22;20140;-84
2022/03/30 06:37:45;;;;;;;73.05;30.45;;;;;;;7.70;52.87;94499.97;6273428;22;20495;-85
2022/03/30 06:40:14;;;;;;;70.65;31.70;;;;;;;9.80;53.47;94768.81;6280953;22;20003;-85
2022/03/30 06:42:41;;;;;;;89.90;29.40;;;;;;;5.08;52.62;94019.78;6273876;22;20021;-85
2022/03/30 06:45:10;;;;;;;85.32;33.00;;;;;;;7.08;52.73;94334.38;6274662;22;20007;-85
2022/03/30 06:47:44;;;;;;;77.47;32.63;;;;;;;5.77;52.46;94117.91;6277426;22;20586;-85
2022/03/30 06:50:11;;;;;;;81.72;34.53;;;;;;;5.14;51.37;94026.59;6273312;22;20441;-86
2022/03/30 06:52:37;;;;;;;93.10;34.38;;;;;;;5.90;51.16;94102.63;6272887;22;20332;-85
2022/03/30 06:55:05;;;;;;;89.47;31.58;;;;;;;7.46;51.30;94377.69;6275371;22;20638;-85
2022/03/30 06:57:30;;;;;;;81.13;33.22;;;;;;;5.57;51.02;94020.66;6276359;22;20325;-84
2022/03/30 06:59:56;;;;;;;81.85;31.92;;;;;;;5.53;51.04;94079.31;6273894;22;20015;-85
2022/03/30 07:02:24;;;;;;;81.20;32.90;;;;;;;5.53;50.96;94051.19;6272949;22;20556;-84
2022/03/30 07:04:49;;;;;;;83.65;33.88;;;;;;;7.68;51.17;94364.09;6276711;22;20066;-84
2022/03/30 07:10:17;;;;;;;77.40;31.77;;;;;;;8.77;51.54;94508.00;6277956;22;20378;-85
2022/03/30 07:12:49;;;;;;;62.85;28.33;;;;;;;7.06;51.41;94286.41;6275396;22;20046;-84
2022/03/30 07:15:15;;;;;;;58.20;27.30;;;;;;;10.87;51.27;94850.75;6279751;22;20007;-84
2022/03/30 07:21:03;;;;;;;70.10;27.50;;;;;;;10.82;51.34;94880.81;6252485;22;20064;-85
2022/03/30 07:23:28;;;;;;;71.50;27.83;;;;;;;10.60;51.57;94736.50;6281893;22;20007;-85
2022/03/30 07:26:00;;;;;;;71.75;28.15;;;;;;;8.69;51.19;94476.91;6284090;22;20019;-84
2022/03/30 07:28:26;;;;;;;;;;;;;;;10.83;51.24;94786.84;6291571;22;20018;-85
2022/03/30 07:30:53;;;;;;;57.95;26.05;;;;;;;6.45;51.10;94073.34;6280374;22;20349;-85
2022/03/30 07:33:19;;;;;;;74.63;26.98;;;;;;;7.70;50.88;94272.25;6282631;22;20023;-85
2022/03/30 07:35:46;;;;;;;64.72;26.95;;;;;;;10.76;50.92;94704.19;6288639;22;20048;-84
2022/03/30 07:38:13;;;;;;;65.63;27.95;;;;;;;8.26;50.30;94303.41;6282626;22;20395;-84
2022/03/30 07:40:39;;;;;;;57.92;27.38;;;;;;;8.35;50.46;94358.03;6285637;22;20026;-84
2022/03/30 07:43:05;;;;;;;72.18;26.38;;;;;;;9.55;50.10;94512.25;6286138;22;20269;-85
2022/03/30 07:45:31;;;;;;;62.95;27.35;;;;;;;7.39;49.80;94147.72;6287274;22;20477;-84
2022/03/30 07:47:56;;;;;;;65.95;28.35;;;;;;;8.33;50.17;94293.31;6286741;22;20015;-84
2022/03/30 07:50:23;;;;;;;71.13;31.33;;;;;;;8.73;50.25;94374.81;6285803;22;20341;-84
2022/03/30 07:52:48;;;;;;;73.75;28.30;;;;;;;9.21;49.72;94385.38;6280238;22;20022;-84
2022/03/30 07:55:15;;;;;;;63.17;26.10;;;;;;;9.28;50.23;94444.03;6277433;22;20007;-86
2022/03/30 07:57:42;;;;;;;50.80;26.15;;;;;;;11.21;49.77;94723.22;6279301;22;20022;-85
2022/03/30 08:00:11;;;;;;;60.38;27.90;;;;;;;7.00;49.33;94071.34;6287278;22;20022;-85
2022/03/30 08:02:37;;;;;;;63.20;29.33;;;;;;;8.73;49.58;94311.38;6282584;22;20053;-84
2022/03/30 08:05:03;;;;;;;59.58;26.67;;;;;;;9.63;49.55;94459.47;6281285;22;20090;-84
2022/03/30 08:07:32;;;;;;;68.03;28.13;;;;;;;11.83;49.22;94791.06;6287922;22;20114;-84
2022/03/30 08:09:58;;;;;;;62.38;27.48;;;;;;;7.68;49.12;94150.34;6261189;22;20011;-83
2022/03/30 08:12:27;;;;;;;72.95;28.38;;;;;;;9.29;48.94;94387.41;6286807;22;20064;-84
2022/03/30 08:14:54;;;;;;;74.28;26.95;;;;;;;7.95;48.76;94157.69;6288281;22;20011;-84
2022/03/30 08:17:27;;;;;;;77.07;29.42;;;;;;;10.29;49.36;94486.94;6289732;22;20087;-83
2022/03/30 08:19:54;;;;;;;67.03;28.05;;;;;;;12.23;48.27;94789.59;6286305;22;20007;-84
2022/03/30 08:22:28;;;;;;;68.25;28.90;;;;;;;9.73;48.24;94395.00;6286784;22;20487;-86
2022/03/30 08:25:01;;;;;;;66.65;26.52;;;;;;;12.63;47.58;94763.34;6281439;22;20027;-85
2022/03/30 08:27:30;;;;;;;63.05;27.77;;;;;;;7.80;47.58;94055.72;6287963;22;20041;-84
2022/03/30 08:29:57;;;;;;;57.78;25.30;;;;;;;12.57;46.91;94728.09;6283415;22;20342;-85
2022/03/30 08:32:23;;;;;;;63.08;26.75;;;;;;;8.54;46.86;94098.34;6288166;22;20011;-85
2022/03/30 08:34:50;;;;;;;63.55;25.90;;;;;;;8.91;46.53;94132.69;6284984;22;20038;-85
2022/03/30 08:37:16;;;;;;;69.85;27.23;;;;;;;11.80;46.89;94570.34;6283338;22;20508;-84
2022/03/30 08:39:42;;;;;;;58.47;26.88;;;;;;;9.86;47.11;94227.44;6292811;22;20082;-84
2022/03/30 08:42:09;;;;;;;81.60;27.60;;;;;;;12.09;45.90;94508.91;6284001;22;20007;-86
2022/03/30 08:44:49;;;;;;;63.53;27.95;;;;;;;10.94;45.79;94330.44;6284725;22;20064;-85
2022/03/30 08:47:17;;;;;;;62.75;26.20;;;;;;;11.04;45.52;94324.94;6287979;22;20378;-85
2022/03/30 08:49:50;;;;;;;70.00;26.85;;;;;;;11.40;45.02;94348.84;6290695;22;20324;-86
2022/03/30 08:52:16;;;;;;;71.05;24.40;;;;;;;12.44;43.98;94488.72;6285357;22;20010;-84
2022/03/30 08:54:50;;;;;;;53.17;25.33;;;;;;;11.32;44.43;94291.16;6289123;22;20011;-84
2022/03/30 08:57:19;;;;;;;74.25;25.05;;;;;;;9.10;44.03;93935.06;6289247;22;20092;-84
2022/03/30 08:59:57;;;;;;;65.57;25.60;;;;;;;14.51;44.46;94699.28;6290499;22;20017;-85
2022/03/30 09:02:23;;;;;;;73.38;28.10;;;;;;;12.71;43.92;94395.50;6292019;22;20033;-85
2022/03/30 09:05:16;;;;;;;55.40;26.30;;;;;;;13.64;43.39;94534.72;6288500;22;20015;-83
2022/03/30 09:07:43;;;;;;;57.88;23.88;;;;;;;10.90;42.63;94091.53;6286736;22;20098;-83
2022/03/30 09:10:20;;;;;;;70.75;25.65;;;;;;;12.30;42.25;94310.66;6286719;22;20022;-84
2022/03/30 09:12:49;;;;;;;52.40;24.25;;;;;;;13.43;42.13;94456.44;6287884;22;20039;-86
2022/03/30 09:15:15;;;;;;;68.18;26.35;;;;;;;10.66;41.59;93983.09;6285496;22;20003;-84
2022/03/30 09:17:41;;;;;;;47.83;22.05;;;;;;;10.82;41.05;93978.19;6288315;22;20078;-84
2022/03/30 09:20:14;;;;;;;63.00;20.33;;;;;;;11.96;40.39;94155.25;6287540;22;20227;-84
2022/03/30 09:23:03;;;;;;;53.28;20.40;;;;;;;13.30;40.44;94377.44;6289801;22;20003;-85
2022/03/30 09:25:32;;;;;;;55.10;19.90;;;;;;;12.53;39.71;94228.94;6264009;22;20037;-86
2022/03/30 09:28:10;;;;;;;34.58;16.70;;;;;;;12.24;38.82;94145.19;6288968;22;20026;-84
2022/03/30 09:30:36;;;;;;;53.10;17.48;;;;;;;14.09;39.08;94426.03;6262081;22;20453;-84
2022/03/30 09:33:02;;;;;;;48.45;16.95;;;;;;;14.27;38.83;94422.25;6284741;22;20015;-84
2022/03/30 09:35:41;;;;;;;38.45;14.65;;;;;;;14.73;37.43;94484.06;6287621;22;20098;-83
2022/03/30 09:38:16;;;;;;;43.33;12.43;;;;;;;14.61;37.33;94487.38;6287442;22;20011;-84
2022/03/30 09:41:01;;;;;;;31.52;11.77;;;;;;;12.14;35.95;94078.22;6289392;22;20461;-84
2022/03/30 09:43:35;;;;;;;38.22;10.90;;;;;;;13.32;35.50;94216.28;6288807;22;20014;-85
2022/03/30 09:46:11;;;;;;;56.90;18.80;;;;;;;16.30;39.43;94636.47;6290032;22;20039;-83
2022/03/30 09:48:53;;;;;;;51.75;19.50;;;;;;;15.64;40.10;94531.84;6290399;22;20015;-86
2022/03/30 09:51:22;;;;;;;;;;;;;;;16.61;39.85;94628.94;6292096;22;20304;-85
2022/03/30 09:53:48;;;;;;;60.03;19.35;;;;;;;16.01;38.62;94543.63;6288444;22;19990;-84
2022/03/30 09:56:24;;;;;;;55.20;19.80;;;;;;;16.66;37.96;94611.91;6289203;22;20027;-86
2022/03/30 09:58:59;;;;;;;48.00;18.65;;;;;;;14.49;38.24;94236.47;6294041;22;20007;-85
2022/03/30 10:01:29;;;;;;;45.22;18.13;;;;;;;16.78;38.08;94583.28;6291400;22;20805;-86
2022/03/30 10:04:04;;;;;;;58.30;17.48;;;;;;;17.12;36.50;94610.94;6293912;22;20108;-85
2022/03/30 10:06:40;;;;;;;53.47;16.20;;;;;;;16.58;36.67;94483.09;6290185;22;20007;-84
2022/03/30 10:09:06;;;;;;;42.70;14.50;;;;;;;17.48;34.54;94581.59;6286586;22;20041;-83
2022/03/30 10:11:32;;;;;;;33.65;13.00;;;;;;;17.06;33.76;94446.16;6284525;22;20003;-82
2022/03/30 10:14:05;;;;;;;48.40;13.80;;;;;;;17.93;33.40;94527.94;6291602;22;20015;-83
2022/03/30 10:16:31;;;;;;;48.95;14.38;;;;;;;17.89;34.66;94502.13;6287170;22;20115;-82
2022/03/30 10:18:56;;;;;;;44.10;15.45;;;;;;;18.36;34.26;94556.91;6288241;22;20294;-82
2022/03/30 10:21:31;;;;;;;40.25;14.65;;;;;;;18.44;35.31;94571.31;6286491;22;20007;-84
2022/03/30 10:24:17;;;;;;;52.78;14.30;;;;;;;18.74;34.91;94569.19;6291937;22;20022;-84
2022/03/30 10:27:11;;;;;;;39.28;13.73;;;;;;;18.21;33.79;94460.19;6284613;22;20227;-85
2022/03/30 10:29:37;;;;;;;34.92;13.70;;;;;;;15.92;32.68;94149.81;6284502;22;20018;-83
2022/03/30 10:32:25;;;;;;;34.75;12.52;;;;;;;19.04;31.45;94553.53;6283655;22;20011;-86
2022/03/30 10:34:53;;;;;;;34.60;12.68;;;;;;;19.45;31.68;94546.97;6283763;22;20106;-85
2022/03/30 10:37:28;;;;;;;37.65;11.93;;;;;;;17.25;29.77;94130.22;6284484;22;20014;-85
2022/03/30 10:40:03;;;;;;;26.92;8.40;;;;;;;20.35;26.35;94540.81;6251805;22;20013;-88
2022/03/30 10:42:45;;;;;;;27.83;6.20;;;;;;;20.30;24.84;94524.88;6291470;22;20088;-87
2022/03/30 10:45:36;;;;;;;17.25;6.68;;;;;;;20.16;25.80;94529.91;6291227;22;20077;-85
2022/03/30 10:48:13;;;;;;;13.27;6.18;;;;;;;19.25;26.42;94546.84;6295759;22;20022;-84
2022/03/30 10:50:45;;;;;;;27.75;5.95;;;;;;;19.33;27.19;94542.44;6288701;22;20096;-85
2022/03/30 10:53:29;;;;;;;24.83;5.93;;;;;;;19.27;26.50;94527.69;6292339;22;20022;-84
2022/03/30 10:55:55;;;;;;;29.27;6.88;;;;;;;17.20;26.54;94194.78;6292541;22;20433;-86
2022/03/30 10:58:20;;;;;;;22.83;6.65;;;;;;;18.69;26.12;94403.66;6290835;22;20010;-85
2022/03/30 11:00:46;;;;;;;42.47;6.68;;;;;;;18.54;26.25;94393.63;6295633;22;20007;-86
2022/03/30 11:03:20;;;;;;;19.05;5.35;;;;;;;19.42;26.06;94524.25;6292889;22;20011;-85
2022/03/30 11:05:58;;;;;;;21.23;6.93;;;;;;;18.45;26.65;94391.13;6287871;22;20011;-86
2022/03/30 11:08:33;;;;;;;18.80;6.13;;;;;;;19.61;26.05;94515.50;6292450;22;20011;-86
2022/03/30 11:11:21;;;;;;;19.00;5.85;;;;;;;19.27;26.14;94463.16;6294878;22;20468;-85
2022/03/30 11:13:46;;;;;;;20.90;5.35;;;;;;;17.31;25.10;94215.41;6312285;22;20346;-85
2022/03/30 11:16:12;;;;;;;29.33;5.95;;;;;;;19.22;25.81;94507.19;6311445;22;20083;-86
2022/03/30 11:18:55;;;;;;;19.45;6.13;;;;;;;18.97;26.21;94508.44;6297071;22;20011;-85
2022/03/30 11:21:21;;;;;;;23.60;6.68;;;;;;;16.19;26.95;94174.03;6294523;22;20054;-84
2022/03/30 11:24:12;;;;;;;25.52;6.65;;;;;;;18.26;27.21;94506.34;6290592;22;20034;-85
2022/03/30 11:27:06;;;;;;;20.92;6.00;;;;;;;18.00;27.00;94454.97;6289334;22;20071;-85
2022/03/30 11:29:41;;;;;;;20.42;5.28;;;;;;;18.65;26.82;94514.81;6290347;22;20013;-84
2022/03/30 11:32:18;;;;;;;16.80;5.10;;;;;;;18.51;25.93;94507.09;6289575;22;20029;-84
2022/03/30 11:34:47;;;;;;;19.52;5.10;;;;;;;18.57;25.99;94504.97;6292497;22;20031;-84
2022/03/30 11:37:13;;;;;;;17.50;4.97;;;;;;;18.10;26.29;94457.97;6290812;22;20549;-85
2022/03/30 11:39:42;;;;;;;22.13;5.28;;;;;;;17.86;26.71;94435.72;6287562;22;20103;-84
2022/03/30 11:42:08;;;;;;;19.52;5.38;;;;;;;16.18;26.18;94219.81;6288319;22;20602;-85